Terminal Aerodrome Forecast
Issued by NWS Louisville, KY

Home | Current Version | Previous Version | Text Only | Print | Product List | Glossary On
Versions: 1 2 3 4 5 6 7 8 9 10 11 12 13 14 15 16 17
000
FTUS43 KLMK 162320
TAFLEX
TAF
KLEX 162320Z 1700/1724 20006KT P6SM FEW040 BKN250
     FM171000 20005KT 5SM BR SCT020 BKN060
     FM171300 21010KT P6SM SCT025 BKN080 PROB30 1716/1719 4SM -TSRA
      BKN025CB
     FM171900 22012G17KT P6SM VCTS SCT035CB BKN090
     FM172300 22012KT P6SM SCT040 BKN100=

USA.gov is the U.S. government's official web portal to all federal, state and local government web resources and services.